createdAt,value
2018-05-18T00:01:52.711Z,8.30
2018-05-18T00:04:20.841Z,8.20
2018-05-18T00:06:48.912Z,8.20
2018-05-18T00:09:16.999Z,8.20
2018-05-18T00:11:45.082Z,8.20
2018-05-18T00:14:13.169Z,8.10
2018-05-18T00:16:41.225Z,8.10
2018-05-18T00:19:09.309Z,8.10
2018-05-18T00:21:37.352Z,8.00
2018-05-18T00:24:05.437Z,8.00
2018-05-18T00:26:33.525Z,8.00
2018-05-18T00:29:01.687Z,8.00
2018-05-18T00:31:30.168Z,8.00
2018-05-18T00:34:00.056Z,7.90
2018-05-18T00:36:28.093Z,7.90
2018-05-18T00:38:56.952Z,7.90
2018-05-18T00:41:25.110Z,7.90
2018-05-18T00:43:53.202Z,7.90
2018-05-18T00:46:22.301Z,7.90
2018-05-18T00:48:50.345Z,7.80
2018-05-18T00:51:18.432Z,7.80
2018-05-18T00:53:46.493Z,7.80
2018-05-18T00:56:14.549Z,7.80
2018-05-18T00:58:42.609Z,7.70
2018-05-18T01:01:11.001Z,7.70
2018-05-18T01:03:39.093Z,7.60
2018-05-18T01:06:07.145Z,7.70
2018-05-18T01:08:35.450Z,7.60
2018-05-18T01:11:03.517Z,7.60
2018-05-18T01:13:31.564Z,7.60
2018-05-18T01:16:00.015Z,7.50
2018-05-18T01:18:28.001Z,7.50
2018-05-18T01:20:56.075Z,7.40
2018-05-18T01:23:24.490Z,7.40
2018-05-18T01:25:54.056Z,7.40
2018-05-18T01:28:22.137Z,7.40
2018-05-18T01:30:50.621Z,7.40
2018-05-18T01:33:19.613Z,7.40
2018-05-18T01:35:47.677Z,7.40
2018-05-18T01:38:15.744Z,7.40
2018-05-18T01:40:44.044Z,7.30
2018-05-18T01:43:12.133Z,7.30
2018-05-18T01:45:40.205Z,7.30
2018-05-18T01:48:08.553Z,7.30
2018-05-18T01:50:36.617Z,7.20
2018-05-18T01:53:04.690Z,7.20
2018-05-18T01:55:33.107Z,7.20
2018-05-18T01:58:01.145Z,7.20
2018-05-18T02:00:29.229Z,7.30
2018-05-18T02:02:57.625Z,7.30
2018-05-18T02:05:25.669Z,7.30
2018-05-18T02:07:53.752Z,7.30
2018-05-18T02:10:22.128Z,7.30
2018-05-18T02:12:50.184Z,7.30
2018-05-18T02:15:18.273Z,7.20
2018-05-18T02:17:47.245Z,7.10
2018-05-18T02:20:15.332Z,7.10
2018-05-18T02:22:43.492Z,7.00
2018-05-18T02:25:11.877Z,6.90
2018-05-18T02:27:39.936Z,6.90
2018-05-18T02:30:08.012Z,6.80
2018-05-18T02:32:36.081Z,6.70
2018-05-18T02:35:04.381Z,6.70
2018-05-18T02:37:32.455Z,6.60
2018-05-18T02:40:00.821Z,6.60
2018-05-18T02:42:28.901Z,6.50
2018-05-18T02:44:56.973Z,6.50
2018-05-18T02:47:25.065Z,6.50
2018-05-18T02:49:53.135Z,6.50
2018-05-18T02:52:21.285Z,6.40
2018-05-18T02:54:49.282Z,6.50
2018-05-18T02:57:17.361Z,6.40
2018-05-18T02:59:45.418Z,6.40
2018-05-18T03:02:13.477Z,6.40
2018-05-18T03:04:41.561Z,6.40
2018-05-18T03:07:09.629Z,6.40
2018-05-18T03:09:38.009Z,6.40
2018-05-18T03:12:06.053Z,6.40
2018-05-18T03:14:34.178Z,6.40
2018-05-18T03:17:03.077Z,6.30
2018-05-18T03:19:31.917Z,6.30
2018-05-18T03:21:59.989Z,6.30
2018-05-18T03:24:28.061Z,6.30
2018-05-18T03:26:56.140Z,6.30
2018-05-18T03:29:24.193Z,6.30
2018-05-18T03:31:52.260Z,6.30
2018-05-18T03:34:20.339Z,6.20
2018-05-18T03:36:48.517Z,6.30
2018-05-18T03:39:16.912Z,6.30
2018-05-18T03:41:44.989Z,6.30
2018-05-18T03:44:13.031Z,6.30
2018-05-18T03:46:41.113Z,6.30
2018-05-18T03:49:09.169Z,6.30
2018-05-18T03:51:37.233Z,6.30
2018-05-18T03:54:05.313Z,6.20
2018-05-18T03:56:33.409Z,6.20
2018-05-18T03:59:01.485Z,6.10
2018-05-18T04:01:29.854Z,6.20
2018-05-18T04:03:57.921Z,6.20
2018-05-18T04:06:25.989Z,6.20
2018-05-18T04:08:54.356Z,6.20
2018-05-18T04:11:22.417Z,6.20
2018-05-18T04:13:50.613Z,6.20
2018-05-18T04:16:18.672Z,6.20
2018-05-18T04:18:46.757Z,6.30
2018-05-18T04:21:14.829Z,6.30
2018-05-18T04:23:42.917Z,6.40
2018-05-18T04:26:10.984Z,6.40
2018-05-18T04:28:39.061Z,6.40
2018-05-18T04:31:07.541Z,6.40
2018-05-18T04:33:35.627Z,6.50
2018-05-18T04:36:04.460Z,6.60
2018-05-18T04:38:32.957Z,6.60
2018-05-18T04:41:01.742Z,6.60
2018-05-18T04:43:29.825Z,6.70
2018-05-18T04:45:57.876Z,6.70
2018-05-18T04:48:26.293Z,6.70
2018-05-18T04:50:54.372Z,6.80
2018-05-18T04:53:22.404Z,6.90
2018-05-18T04:55:50.509Z,6.90
2018-05-18T04:58:18.548Z,7.00
2018-05-18T05:00:46.609Z,7.10
2018-05-18T05:03:14.722Z,7.20
2018-05-18T05:05:42.981Z,7.30
2018-05-18T05:08:11.032Z,7.40
2018-05-18T05:10:39.792Z,7.60
2018-05-18T05:13:09.461Z,7.90
2018-05-18T05:15:37.538Z,7.90
2018-05-18T05:18:05.605Z,8.10
2018-05-18T05:20:33.660Z,8.20
2018-05-18T05:23:01.813Z,8.40
2018-05-18T05:25:30.334Z,8.60
2018-05-18T05:27:58.405Z,8.80
2018-05-18T05:30:27.137Z,8.90
2018-05-18T05:32:55.973Z,9.20
2018-05-18T05:35:24.974Z,9.20
2018-05-18T05:37:53.062Z,9.20
2018-05-18T05:40:21.129Z,9.30
2018-05-18T05:42:49.925Z,9.40
2018-05-18T05:45:19.605Z,9.70
2018-05-18T05:47:48.920Z,9.70
2018-05-18T05:50:18.028Z,9.80
2018-05-18T05:52:46.916Z,10.00
2018-05-18T05:55:15.689Z,10.00
2018-05-18T05:57:44.680Z,10.10
2018-05-18T06:00:13.285Z,10.20
2018-05-18T06:02:42.949Z,10.50
2018-05-18T06:05:11.765Z,10.50
2018-05-18T06:07:40.508Z,10.60
2018-05-18T06:10:09.005Z,10.80
2018-05-18T06:12:37.089Z,10.90
2018-05-18T06:15:05.148Z,10.90
2018-05-18T06:17:33.265Z,11.00
2018-05-18T06:20:02.643Z,11.10
2018-05-18T06:22:31.645Z,11.10
2018-05-18T06:25:00.812Z,11.10
2018-05-18T06:27:29.508Z,11.30
2018-05-18T06:29:57.608Z,11.50
2018-05-18T06:32:25.681Z,11.60
2018-05-18T06:34:56.032Z,11.70
2018-05-18T06:37:25.673Z,12.00
2018-05-18T06:39:54.464Z,12.00
2018-05-18T06:42:23.281Z,12.20
2018-05-18T06:44:51.965Z,12.30
2018-05-18T06:47:20.725Z,12.40
2018-05-18T06:49:49.305Z,12.80
2018-05-18T06:52:17.977Z,13.10
2018-05-18T06:54:46.689Z,13.20
2018-05-18T06:57:15.513Z,13.30
2018-05-18T06:59:44.181Z,13.40
2018-05-18T07:02:13.048Z,13.50
2018-05-18T07:04:42.019Z,13.70
2018-05-18T07:07:10.096Z,13.90
2018-05-18T07:09:39.756Z,14.20
2018-05-18T07:12:08.841Z,14.40
2018-05-18T07:14:37.525Z,14.40
2018-05-18T07:17:06.530Z,14.50
2018-05-18T07:19:35.309Z,14.60
2018-05-18T07:22:04.169Z,14.20
2018-05-18T07:24:33.084Z,14.60
2018-05-18T07:27:01.981Z,15.50
2018-05-18T07:29:30.737Z,16.60
2018-05-18T07:31:59.415Z,17.90
2018-05-18T07:34:28.229Z,19.20
2018-05-18T07:36:56.843Z,20.30
2018-05-18T07:39:26.457Z,20.00
2018-05-18T07:41:55.997Z,20.30
2018-05-18T07:44:24.968Z,20.20
2018-05-18T07:46:53.597Z,20.50
2018-05-18T07:49:22.275Z,21.20
2018-05-18T07:51:50.970Z,20.20
2018-05-18T07:54:19.800Z,20.20
2018-05-18T07:56:48.731Z,21.60
2018-05-18T07:59:17.635Z,21.60
2018-05-18T08:01:45.725Z,21.30
2018-05-18T08:04:14.492Z,21.30
2018-05-18T08:06:43.205Z,21.70
2018-05-18T08:09:11.289Z,22.00
2018-05-18T08:11:39.365Z,21.60
2018-05-18T08:14:08.916Z,20.20
2018-05-18T08:16:37.614Z,20.10
2018-05-18T08:19:06.096Z,20.70
2018-05-18T08:21:35.120Z,21.40
2018-05-18T08:24:04.069Z,20.40
2018-05-18T08:26:32.133Z,20.90
2018-05-18T08:29:01.761Z,21.50
2018-05-18T08:31:31.189Z,22.10
2018-05-18T08:33:59.965Z,22.50
2018-05-18T08:36:29.613Z,23.50
2018-05-18T08:38:58.997Z,25.00
2018-05-18T08:41:27.691Z,25.00
2018-05-18T08:43:58.272Z,24.40
2018-05-18T08:46:26.977Z,24.40
2018-05-18T08:48:55.854Z,24.10
2018-05-18T08:51:24.336Z,24.80
2018-05-18T08:53:53.064Z,25.70
2018-05-18T08:56:21.922Z,26.30
2018-05-18T08:58:50.600Z,26.20
2018-05-18T09:01:19.405Z,26.80
2018-05-18T09:03:47.469Z,26.90
2018-05-18T09:06:16.414Z,27.40
2018-05-18T09:08:45.285Z,27.20
2018-05-18T09:11:14.845Z,27.80
2018-05-18T09:13:43.865Z,27.80
2018-05-18T09:16:11.995Z,28.10
2018-05-18T09:18:40.597Z,28.40
2018-05-18T09:21:08.678Z,28.80
2018-05-18T09:23:37.590Z,29.00
2018-05-18T09:26:07.129Z,29.00
2018-05-18T09:28:35.647Z,28.90
2018-05-18T09:31:04.678Z,28.60
2018-05-18T09:33:35.585Z,28.50
2018-05-18T09:36:04.465Z,28.50
2018-05-18T09:38:32.578Z,28.50
2018-05-18T09:41:03.110Z,28.40
2018-05-18T09:43:32.805Z,27.30
2018-05-18T09:46:01.698Z,27.30
2018-05-18T09:48:29.753Z,27.30
2018-05-18T09:50:58.657Z,27.80
2018-05-18T09:53:27.625Z,28.00
2018-05-18T09:55:56.102Z,28.00
2018-05-18T09:58:24.201Z,28.00
2018-05-18T10:00:52.757Z,28.20
2018-05-18T10:03:20.841Z,28.60
2018-05-18T10:05:48.900Z,29.10
2018-05-18T10:08:17.924Z,28.40
2018-05-18T10:10:46.621Z,28.20
2018-05-18T10:13:15.980Z,29.10
2018-05-18T10:15:44.768Z,29.00
2018-05-18T10:18:13.672Z,28.30
2018-05-18T10:20:42.345Z,28.10
2018-05-18T10:23:11.276Z,27.90
2018-05-18T10:25:40.361Z,28.00
2018-05-18T10:28:09.238Z,27.30
2018-05-18T10:30:37.296Z,26.90
2018-05-18T10:33:06.009Z,26.70
2018-05-18T10:35:34.092Z,27.00
2018-05-18T10:38:02.675Z,27.20
2018-05-18T10:40:32.092Z,28.10
2018-05-18T10:43:01.881Z,28.10
2018-05-18T10:45:30.665Z,28.20
2018-05-18T10:48:00.345Z,28.40
2018-05-18T10:50:29.033Z,29.20
2018-05-18T10:52:57.141Z,28.50
2018-05-18T10:55:27.018Z,28.80
2018-05-18T10:57:55.883Z,28.80
2018-05-18T11:00:24.996Z,29.30
2018-05-18T11:02:54.391Z,28.80
2018-05-18T11:05:23.155Z,28.60
2018-05-18T11:07:51.917Z,28.70
2018-05-18T11:10:20.980Z,29.30
2018-05-18T11:12:49.617Z,28.30
2018-05-18T11:15:19.024Z,27.90
2018-05-18T11:17:48.568Z,28.60
2018-05-18T11:20:17.869Z,28.60
2018-05-18T11:22:46.909Z,28.90
2018-05-18T11:25:15.770Z,29.50
2018-05-18T11:27:43.853Z,29.40
2018-05-18T11:30:11.954Z,28.30
2018-05-18T11:32:40.842Z,28.70
2018-05-18T11:35:10.397Z,29.00
2018-05-18T11:37:39.389Z,29.00
2018-05-18T11:40:08.013Z,29.60
2018-05-18T11:42:36.084Z,29.40
2018-05-18T11:45:04.760Z,29.60
2018-05-18T11:47:33.441Z,28.90
2018-05-18T11:50:01.497Z,29.40
2018-05-18T11:52:30.405Z,29.50
2018-05-18T11:54:59.209Z,29.90
2018-05-18T11:57:29.085Z,30.10
2018-05-18T11:59:58.480Z,30.00
2018-05-18T12:02:26.639Z,29.90
2018-05-18T12:04:55.482Z,29.80
2018-05-18T12:07:24.317Z,29.70
2018-05-18T12:09:52.393Z,29.30
2018-05-18T12:12:21.025Z,29.60
2018-05-18T12:14:49.075Z,30.30
2018-05-18T12:17:17.777Z,30.70
2018-05-18T12:19:48.200Z,30.80
2018-05-18T12:22:16.257Z,30.80
2018-05-18T12:24:45.153Z,30.90
2018-05-18T12:27:13.936Z,31.00
2018-05-18T12:29:42.957Z,30.90
2018-05-18T12:32:11.797Z,30.10
2018-05-18T12:34:39.893Z,30.00
2018-05-18T12:37:08.480Z,30.00
2018-05-18T12:39:37.090Z,29.90
2018-05-18T12:42:05.686Z,30.00
2018-05-18T12:44:34.608Z,30.30
2018-05-18T12:47:03.555Z,30.30
2018-05-18T12:49:31.601Z,30.10
2018-05-18T12:51:59.685Z,30.60
2018-05-18T12:54:27.793Z,30.60
2018-05-18T12:56:56.729Z,30.30
2018-05-18T12:59:24.940Z,30.40
2018-05-18T13:01:53.197Z,29.60
2018-05-18T13:04:23.288Z,28.10
2018-05-18T13:06:52.792Z,28.20
2018-05-18T13:09:20.909Z,27.90
2018-05-18T13:11:51.077Z,28.70
2018-05-18T13:14:19.148Z,28.70
2018-05-18T13:16:47.753Z,29.30
2018-05-18T13:19:15.853Z,29.80
2018-05-18T13:21:45.048Z,29.90
2018-05-18T13:24:13.820Z,29.80
2018-05-18T13:26:41.879Z,30.00
2018-05-18T13:29:10.701Z,30.00
2018-05-18T13:31:40.202Z,30.20
2018-05-18T13:34:09.060Z,30.20
2018-05-18T13:36:37.169Z,29.40
2018-05-18T13:39:05.237Z,29.40
2018-05-18T13:41:33.616Z,29.30
2018-05-18T13:44:02.469Z,29.90
2018-05-18T13:46:30.590Z,29.90
2018-05-18T13:48:58.917Z,30.30
2018-05-18T13:51:27.705Z,29.90
2018-05-18T13:53:55.776Z,29.90
2018-05-18T13:56:23.872Z,29.70
2018-05-18T13:58:52.257Z,29.40
2018-05-18T14:01:21.145Z,29.40
2018-05-18T14:03:50.017Z,29.10
2018-05-18T14:06:19.205Z,29.10
2018-05-18T14:08:47.273Z,28.40
2018-05-18T14:11:15.861Z,28.70
2018-05-18T14:13:43.932Z,28.80
2018-05-18T14:16:12.684Z,28.90
2018-05-18T14:18:41.433Z,29.20
2018-05-18T14:21:10.089Z,29.30
2018-05-18T14:23:38.628Z,29.40
2018-05-18T14:26:08.077Z,28.40
2018-05-18T14:28:36.789Z,28.40
2018-05-18T14:31:04.877Z,28.60
2018-05-18T14:33:34.264Z,27.00
2018-05-18T14:36:02.321Z,26.90
2018-05-18T14:38:30.377Z,26.50
2018-05-18T14:40:59.009Z,27.40
2018-05-18T14:43:27.841Z,27.00
2018-05-18T14:45:55.937Z,27.00
2018-05-18T14:48:24.333Z,25.20
2018-05-18T14:50:52.385Z,23.90
2018-05-18T14:53:20.473Z,24.80
2018-05-18T14:55:50.360Z,25.90
2018-05-18T14:58:18.467Z,25.90
2018-05-18T15:00:46.546Z,26.50
2018-05-18T15:03:14.785Z,25.80
2018-05-18T15:05:43.095Z,26.30
2018-05-18T15:08:11.169Z,24.80
2018-05-18T15:10:39.252Z,24.30
2018-05-18T15:13:08.688Z,25.30
2018-05-18T15:15:36.741Z,25.20
2018-05-18T15:18:04.804Z,25.40
2018-05-18T15:20:32.868Z,25.40
2018-05-18T15:23:00.921Z,25.30
2018-05-18T15:25:28.973Z,24.60
2018-05-18T15:27:57.078Z,24.40
2018-05-18T15:30:25.938Z,23.80
2018-05-18T15:32:53.988Z,23.70
2018-05-18T15:35:22.601Z,23.50
2018-05-18T15:37:50.689Z,23.30
2018-05-18T15:40:18.757Z,23.30
2018-05-18T15:42:47.220Z,23.00
2018-05-18T15:45:15.176Z,22.60
2018-05-18T15:47:43.238Z,22.40
2018-05-18T15:50:11.576Z,22.30
2018-05-18T15:52:39.628Z,21.90
2018-05-18T15:55:08.464Z,20.20
2018-05-18T15:57:36.839Z,20.10
2018-05-18T16:00:04.941Z,20.10
2018-05-18T16:02:34.021Z,19.80
2018-05-18T16:05:02.122Z,19.90
2018-05-18T16:07:30.178Z,20.10
2018-05-18T16:09:58.584Z,20.30
2018-05-18T16:12:26.625Z,20.40
2018-05-18T16:14:54.685Z,20.30
2018-05-18T16:17:22.773Z,19.80
2018-05-18T16:19:50.865Z,19.60
2018-05-18T16:22:18.942Z,19.50
2018-05-18T16:24:47.205Z,18.70
2018-05-18T16:27:16.180Z,18.20
2018-05-18T16:29:44.270Z,18.20
2018-05-18T16:32:12.345Z,18.40
2018-05-18T16:34:40.418Z,18.20
2018-05-18T16:37:08.465Z,17.80
2018-05-18T16:39:36.574Z,18.00
2018-05-18T16:42:05.409Z,18.20
2018-05-18T16:44:33.476Z,18.20
2018-05-18T16:47:01.578Z,17.90
2018-05-18T16:49:30.657Z,17.70
2018-05-18T16:51:58.756Z,17.60
2018-05-18T16:54:28.349Z,17.40
2018-05-18T16:56:56.677Z,17.40
2018-05-18T16:59:25.504Z,17.70
2018-05-18T17:01:53.584Z,17.70
2018-05-18T17:04:21.684Z,17.80
2018-05-18T17:06:49.761Z,17.90
2018-05-18T17:09:18.617Z,17.40
2018-05-18T17:11:46.713Z,17.40
2018-05-18T17:14:16.377Z,16.90
2018-05-18T17:16:44.473Z,16.90
2018-05-18T17:19:12.876Z,16.90
2018-05-18T17:21:40.949Z,17.10
2018-05-18T17:24:08.992Z,16.70
2018-05-18T17:26:37.385Z,16.70
2018-05-18T17:29:05.469Z,16.60
2018-05-18T17:31:33.512Z,16.50
2018-05-18T17:34:01.881Z,16.30
2018-05-18T17:36:29.950Z,16.30
2018-05-18T17:38:58.055Z,16.20
2018-05-18T17:41:26.137Z,16.30
2018-05-18T17:43:54.212Z,16.20
2018-05-18T17:46:23.069Z,16.10
2018-05-18T17:48:51.203Z,16.10
2018-05-18T17:51:20.212Z,16.00
2018-05-18T17:53:48.280Z,16.00
2018-05-18T17:56:16.597Z,15.90
2018-05-18T17:58:44.653Z,15.90
2018-05-18T18:01:12.747Z,15.70
2018-05-18T18:03:40.836Z,15.70
2018-05-18T18:06:09.665Z,15.70
2018-05-18T18:08:37.758Z,15.70
2018-05-18T18:11:05.829Z,15.60
2018-05-18T18:13:33.888Z,15.50
2018-05-18T18:16:02.006Z,15.30
2018-05-18T18:18:30.884Z,15.00
2018-05-18T18:20:58.964Z,15.10
2018-05-18T18:23:27.025Z,15.10
2018-05-18T18:25:55.125Z,15.10
2018-05-18T18:28:23.994Z,15.00
2018-05-18T18:30:52.066Z,15.00
2018-05-18T18:33:20.121Z,14.80
2018-05-18T18:35:48.213Z,14.80
2018-05-18T18:38:16.252Z,14.80
2018-05-18T18:40:44.808Z,14.80
2018-05-18T18:43:12.946Z,14.80
2018-05-18T18:45:40.952Z,14.80
2018-05-18T18:48:09.377Z,14.70
2018-05-18T18:50:37.461Z,14.60
2018-05-18T18:53:05.529Z,14.50
2018-05-18T18:55:34.480Z,14.40
2018-05-18T18:58:02.583Z,14.50
2018-05-18T19:00:30.642Z,14.40
2018-05-18T19:02:58.744Z,14.40
2018-05-18T19:05:27.602Z,14.30
2018-05-18T19:07:55.716Z,14.30
2018-05-18T19:10:23.762Z,14.30
2018-05-18T19:12:51.815Z,14.20
2018-05-18T19:15:20.538Z,14.10
2018-05-18T19:17:49.389Z,13.80
2018-05-18T19:20:17.449Z,13.80
2018-05-18T19:22:45.560Z,13.70
2018-05-18T19:25:13.635Z,13.60
2018-05-18T19:27:41.677Z,13.60
2018-05-18T19:30:10.068Z,13.50
2018-05-18T19:32:38.129Z,13.40
2018-05-18T19:35:06.213Z,13.40
2018-05-18T19:37:34.316Z,13.30
2018-05-18T19:40:03.236Z,13.10
2018-05-18T19:42:31.308Z,13.10
2018-05-18T19:45:00.424Z,13.10
2018-05-18T19:47:28.516Z,13.00
2018-05-18T19:49:56.691Z,13.00
2018-05-18T19:52:24.937Z,12.90
2018-05-18T19:54:53.037Z,12.80
2018-05-18T19:57:21.089Z,12.80
2018-05-18T19:59:49.705Z,12.70
2018-05-18T20:02:17.749Z,12.60
2018-05-18T20:04:45.825Z,12.50
2018-05-18T20:07:14.129Z,12.40
2018-05-18T20:09:42.961Z,12.30
2018-05-18T20:12:11.150Z,12.20
2018-05-18T20:14:39.128Z,12.20
2018-05-18T20:17:07.381Z,12.10
2018-05-18T20:19:35.477Z,12.00
2018-05-18T20:22:04.044Z,12.00
2018-05-18T20:24:32.148Z,12.00
2018-05-18T20:27:00.200Z,11.90
2018-05-18T20:29:28.802Z,11.70
2018-05-18T20:31:56.932Z,11.60
2018-05-18T20:34:24.941Z,11.50
2018-05-18T20:36:53.293Z,11.40
2018-05-18T20:39:21.368Z,11.30
2018-05-18T20:41:49.437Z,11.30
2018-05-18T20:44:17.741Z,11.30
2018-05-18T20:46:45.793Z,11.30
2018-05-18T20:49:13.853Z,11.20
2018-05-18T20:51:42.304Z,11.10
2018-05-18T20:54:10.317Z,11.10
2018-05-18T20:56:38.417Z,11.10
2018-05-18T20:59:07.605Z,11.10
2018-05-18T21:01:36.597Z,11.00
2018-05-18T21:04:04.682Z,11.00
2018-05-18T21:06:32.725Z,10.90
2018-05-18T21:09:01.129Z,10.90
2018-05-18T21:11:29.173Z,10.80
2018-05-18T21:13:57.251Z,10.80
2018-05-18T21:16:25.609Z,10.70
2018-05-18T21:18:53.708Z,10.60
2018-05-18T21:21:21.765Z,10.60
2018-05-18T21:23:50.261Z,10.50
2018-05-18T21:26:18.501Z,10.50
2018-05-18T21:28:46.593Z,10.40
2018-05-18T21:31:14.668Z,10.40
2018-05-18T21:33:42.724Z,10.30
2018-05-18T21:36:10.881Z,10.30
2018-05-18T21:38:38.901Z,10.20
2018-05-18T21:41:06.949Z,10.10
2018-05-18T21:43:35.008Z,10.00
2018-05-18T21:46:03.129Z,10.00
2018-05-18T21:48:31.981Z,9.80
2018-05-18T21:51:00.133Z,9.80
2018-05-18T21:53:28.221Z,9.80
2018-05-18T21:55:56.277Z,9.80
2018-05-18T21:58:24.369Z,9.80
2018-05-18T22:00:52.737Z,9.80
2018-05-18T22:03:21.028Z,9.70
2018-05-18T22:05:49.085Z,9.70
2018-05-18T22:08:17.669Z,9.70
2018-05-18T22:10:45.728Z,9.60
2018-05-18T22:13:13.821Z,9.60
2018-05-18T22:15:41.996Z,9.60
2018-05-18T22:18:10.057Z,9.60
2018-05-18T22:20:38.137Z,9.50
2018-05-18T22:23:06.245Z,9.60
2018-05-18T22:25:35.100Z,9.60
2018-05-18T22:28:03.160Z,9.60
2018-05-18T22:30:31.640Z,9.60
2018-05-18T22:32:59.725Z,9.60
2018-05-18T22:35:27.780Z,9.60
2018-05-18T22:37:55.856Z,9.60
2018-05-18T22:40:23.916Z,9.60
2018-05-18T22:42:52.009Z,9.60
2018-05-18T22:45:20.376Z,9.60
2018-05-18T22:47:48.438Z,9.60
2018-05-18T22:50:16.505Z,9.50
2018-05-18T22:52:44.825Z,9.50
2018-05-18T22:55:12.865Z,9.50
2018-05-18T22:57:40.928Z,9.40
2018-05-18T23:00:09.224Z,9.40
2018-05-18T23:02:37.284Z,9.40
2018-05-18T23:05:06.366Z,9.30
2018-05-18T23:07:34.441Z,9.30
2018-05-18T23:10:02.510Z,9.20
2018-05-18T23:12:30.548Z,9.20
2018-05-18T23:14:59.717Z,9.10
2018-05-18T23:17:27.850Z,9.10
2018-05-18T23:19:55.845Z,9.10
2018-05-18T23:22:23.904Z,9.10
2018-05-18T23:24:51.961Z,9.10
2018-05-18T23:27:20.037Z,9.00
2018-05-18T23:29:48.129Z,8.90
2018-05-18T23:32:16.176Z,8.90
2018-05-18T23:34:44.247Z,8.80
2018-05-18T23:37:12.321Z,8.80
2018-05-18T23:39:40.389Z,8.70
2018-05-18T23:42:08.464Z,8.70
2018-05-18T23:44:36.532Z,8.70
2018-05-18T23:47:04.575Z,8.70
2018-05-18T23:49:33.417Z,8.60
2018-05-18T23:52:01.785Z,8.60
2018-05-18T23:54:29.868Z,8.60
2018-05-18T23:56:57.921Z,8.50
2018-05-18T23:59:26.341Z,8.50
